Time;durP1;ratioP1;P1;durP2;ratioP2;P2;SDS_P1;SDS_P2;PMS_P1;PMS_P2;Temp;Humidity;BMP_temperature;BMP_pressure;BME280_temperature;BME280_humidity;BME280_pressure;Samples;Min_cycle;Max_cycle;Signal;HPM_P1;HPM_P2
2022/08/22 00:00:24;;;;;;;7.20;6.50;;;;;;;16.38;100.00;99274.38;4988212;28;20062;-90
2022/08/22 00:02:59;;;;;;;7.05;6.05;;;;;;;16.39;100.00;99283.53;4976685;28;20507;-89
2022/08/22 00:05:50;;;;;;;6.45;5.75;;;;;;;16.41;100.00;99270.63;4987187;28;20085;-89
2022/08/22 00:08:25;;;;;;;7.45;5.28;;;;;;;16.35;100.00;99278.19;4974543;28;20053;-91
2022/08/22 00:11:02;;;;;;;6.47;5.45;;;;;;;16.29;100.00;99268.97;5001531;28;20125;-90
2022/08/22 00:13:42;;;;;;;5.75;5.03;;;;;;;16.24;100.00;99264.09;5008080;28;20492;-80
2022/08/22 00:16:38;;;;;;;4.95;4.45;;;;;;;16.33;100.00;99272.31;4988556;28;20065;-89
2022/08/22 00:19:30;;;;;;;4.53;3.85;;;;;;;16.26;100.00;99267.13;5007701;28;20526;-90
2022/08/22 00:22:02;;;;;;;4.00;3.60;;;;;;;16.28;100.00;99270.22;4973487;28;20480;-89
2022/08/22 00:24:36;;;;;;;3.88;3.47;;;;;;;16.30;100.00;99270.50;4991655;28;20073;-89
2022/08/22 00:27:06;;;;;;;4.43;3.60;;;;;;;16.25;100.00;99272.00;4968944;28;20125;-89
2022/08/22 00:29:37;;;;;;;3.33;2.83;;;;;;;16.25;100.00;99263.59;4967953;28;20126;-90
2022/08/22 00:32:25;;;;;;;4.47;2.63;;;;;;;16.25;100.00;99260.03;4977177;28;20046;-89
2022/08/22 00:34:58;;;;;;;3.10;2.45;;;;;;;16.17;100.00;99265.31;4990623;28;20042;-89
2022/08/22 00:37:29;;;;;;;3.08;2.42;;;;;;;16.14;100.00;99257.09;4994784;28;20042;-89
2022/08/22 00:40:33;;;;;;;3.55;2.55;;;;;;;16.12;100.00;99259.66;4973710;28;20400;-89
2022/08/22 00:43:37;;;;;;;3.75;2.30;;;;;;;16.07;100.00;99258.31;4991412;28;20061;-90
2022/08/22 00:46:36;;;;;;;2.92;2.17;;;;;;;16.06;100.00;99256.78;4963145;28;20524;-89
2022/08/22 00:49:20;;;;;;;3.13;2.10;;;;;;;16.03;100.00;99254.97;4990904;28;20058;-91
2022/08/22 00:52:03;;;;;;;4.28;2.15;;;;;;;15.97;100.00;99245.00;4989912;28;20042;-88
2022/08/22 00:55:06;;;;;;;4.18;1.85;;;;;;;16.01;100.00;99248.34;4997040;28;20038;-82
2022/08/22 00:57:44;;;;;;;2.33;1.95;;;;;;;15.93;100.00;99245.22;4981962;28;20405;-81
2022/08/22 01:00:12;;;;;;;3.28;2.33;;;;;;;15.94;100.00;99248.75;4986461;28;20050;-81
2022/08/22 01:02:39;;;;;;;4.80;2.50;;;;;;;15.91;100.00;99235.78;4990672;28;20038;-81
2022/08/22 01:05:21;;;;;;;2.30;2.10;;;;;;;15.94;100.00;99237.56;5010426;28;20060;-81
2022/08/22 01:08:05;;;;;;;2.65;1.95;;;;;;;15.95;100.00;99233.53;4999216;28;20042;-81
2022/08/22 01:10:48;;;;;;;2.80;2.10;;;;;;;15.95;100.00;99233.53;4990450;28;20046;-81
2022/08/22 01:13:28;;;;;;;2.95;2.67;;;;;;;15.98;100.00;99232.53;4973722;28;20591;-90
2022/08/22 01:16:18;;;;;;;3.15;2.50;;;;;;;15.97;100.00;99237.38;4957635;28;20677;-91
2022/08/22 01:19:18;;;;;;;2.85;2.60;;;;;;;15.97;100.00;99231.00;4987850;28;20487;-92
2022/08/22 01:22:08;;;;;;;3.80;2.45;;;;;;;15.96;100.00;99229.47;4986939;28;20094;-94
2022/08/22 01:25:17;;;;;;;3.22;2.70;;;;;;;15.96;100.00;99218.28;4964601;28;20042;-96
2022/08/22 01:28:01;;;;;;;3.10;2.63;;;;;;;15.92;100.00;99221.31;4984860;28;20113;-92
2022/08/22 01:30:59;;;;;;;3.25;2.40;;;;;;;15.93;100.00;99219.28;4987817;28;20038;-91
2022/08/22 01:33:36;;;;;;;4.97;2.70;;;;;;;15.89;100.00;99225.09;4951141;28;20587;-82
2022/08/22 01:36:10;;;;;;;3.03;2.42;;;;;;;15.86;100.00;99210.03;4979865;28;20042;-82
2022/08/22 01:38:39;;;;;;;3.35;2.78;;;;;;;15.87;100.00;99219.22;4982003;28;20476;-82
2022/08/22 01:41:05;;;;;;;2.85;2.20;;;;;;;15.86;100.00;99210.03;4986936;28;20050;-82
2022/08/22 01:44:01;;;;;;;3.33;2.20;;;;;;;15.89;100.00;99218.72;4988105;28;20034;-82
2022/08/22 01:46:37;;;;;;;3.78;2.20;;;;;;;15.85;100.00;99214.09;4985789;28;20065;-82
2022/08/22 01:49:30;;;;;;;2.72;2.13;;;;;;;15.83;100.00;99216.63;4980465;28;20126;-82
2022/08/22 01:52:01;;;;;;;2.97;2.10;;;;;;;15.86;100.00;99212.84;4976841;28;20409;-92
2022/08/22 01:54:44;;;;;;;2.90;2.20;;;;;;;15.84;100.00;99211.81;4989445;28;20043;-95
2022/08/22 01:57:10;;;;;;;3.85;2.50;;;;;;;15.82;100.00;99209.50;4986418;28;20034;-93
2022/08/22 01:59:41;;;;;;;5.88;2.60;;;;;;;15.83;100.00;99205.44;4989698;28;20062;-92
2022/08/22 02:02:28;;;;;;;4.28;2.72;;;;;;;15.82;100.00;99215.09;4980202;28;20480;-90
2022/08/22 02:05:19;;;;;;;3.63;2.88;;;;;;;15.82;100.00;99220.69;4975313;28;20089;-92
2022/08/22 02:07:50;;;;;;;4.55;3.00;;;;;;;15.82;100.00;99212.28;4983092;28;20501;-91
2022/08/22 02:10:40;;;;;;;3.88;3.13;;;;;;;15.81;100.00;99227.53;4970364;28;20043;-83
2022/08/22 02:13:38;;;;;;;4.20;3.28;;;;;;;15.82;100.00;99217.88;4987289;28;20046;-82
2022/08/22 02:16:17;;;;;;;3.90;3.50;;;;;;;15.80;100.00;99212.03;4983341;28;20545;-82
2022/08/22 02:19:10;;;;;;;4.60;2.95;;;;;;;15.83;100.00;99215.88;4963273;28;20057;-82
2022/08/22 02:22:00;;;;;;;3.83;3.43;;;;;;;15.80;100.00;99200.84;5001681;28;20045;-82
2022/08/22 02:24:32;;;;;;;4.10;3.70;;;;;;;15.84;100.00;99206.22;5010860;28;20104;-82
2022/08/22 02:27:09;;;;;;;4.90;3.70;;;;;;;15.84;100.00;99201.41;5008333;28;20049;-82
2022/08/22 02:29:41;;;;;;;4.68;4.10;;;;;;;15.82;100.00;99208.72;5015000;28;20046;-96
2022/08/22 02:32:39;;;;;;;4.93;4.15;;;;;;;15.83;100.00;99199.09;5022697;28;20054;-95
2022/08/22 02:35:17;;;;;;;5.45;3.90;;;;;;;15.82;100.00;99198.31;5006696;28;20447;-91
2022/08/22 02:38:06;;;;;;;4.45;3.75;;;;;;;15.81;100.00;99199.56;4993818;28;20034;-94
2022/08/22 02:40:50;;;;;;;4.63;3.70;;;;;;;15.84;100.00;99192.25;5016203;28;20089;-94
2022/08/22 02:43:34;;;;;;;5.13;3.78;;;;;;;15.85;100.00;99197.31;5010879;28;20046;-94
2022/08/22 02:46:29;;;;;;;4.28;3.88;;;;;;;15.85;100.00;99194.53;4991143;28;20045;-94
2022/08/22 02:49:15;;;;;;;4.88;3.80;;;;;;;15.86;100.00;99201.66;5011627;28;20049;-93
2022/08/22 02:52:02;;;;;;;6.05;3.60;;;;;;;15.86;100.00;99198.88;5014671;28;20046;-93
2022/08/22 02:54:41;;;;;;;5.55;3.60;;;;;;;15.89;100.00;99199.16;4998639;28;20052;-95
2022/08/22 02:57:12;;;;;;;4.00;3.28;;;;;;;15.82;100.00;99181.53;5013086;28;20415;-94
2022/08/22 02:59:59;;;;;;;3.28;2.97;;;;;;;15.83;100.00;99193.50;5009569;28;20034;-94
2022/08/22 03:02:38;;;;;;;3.85;3.10;;;;;;;15.83;100.00;99194.25;5010436;28;20064;-95
2022/08/22 03:05:25;;;;;;;2.95;2.42;;;;;;;15.80;100.00;99186.88;5016315;28;20487;-96
2022/08/22 03:08:31;;;;;;;3.03;2.38;;;;;;;15.83;100.00;99194.25;5011738;28;20053;-82
2022/08/22 03:11:17;;;;;;;3.00;2.65;;;;;;;15.82;100.00;99195.50;4975609;28;20050;-83
2022/08/22 03:14:06;;;;;;;2.80;2.33;;;;;;;15.83;100.00;99188.66;5005153;28;20108;-83
2022/08/22 03:16:59;;;;;;;2.75;2.30;;;;;;;15.82;100.00;99192.72;5009031;28;20041;-83
2022/08/22 03:19:53;;;;;;;3.08;2.78;;;;;;;15.80;100.00;99195.25;5009805;28;20045;-82
2022/08/22 03:22:43;;;;;;;3.00;2.50;;;;;;;15.78;100.00;99192.16;4991247;28;20050;-82
2022/08/22 03:25:16;;;;;;;4.55;2.88;;;;;;;15.80;100.00;99200.84;4992537;28;20148;-82
2022/08/22 03:27:56;;;;;;;3.35;2.85;;;;;;;15.80;100.00;99197.28;5005448;28;20428;-95
2022/08/22 03:30:44;;;;;;;3.55;2.80;;;;;;;15.83;100.00;99194.25;5000011;28;20073;-94
2022/08/22 03:33:19;;;;;;;3.20;2.80;;;;;;;15.75;100.00;99200.78;5019396;28;20046;-94
2022/08/22 03:35:44;;;;;;;3.25;2.90;;;;;;;15.75;100.00;99193.16;5003285;28;20046;-93
2022/08/22 03:38:16;;;;;;;3.10;2.80;;;;;;;15.74;100.00;99197.22;5024830;28;20052;-93
2022/08/22 03:40:45;;;;;;;3.92;2.50;;;;;;;15.72;100.00;99194.16;5007883;23;20505;-81
2022/08/22 03:43:29;;;;;;;3.33;2.75;;;;;;;15.70;100.00;99207.06;4996902;28;20055;-82
2022/08/22 03:46:22;;;;;;;3.60;3.13;;;;;;;15.69;100.00;99206.31;4991426;28;20093;-81
2022/08/22 03:49:26;;;;;;;4.55;3.22;;;;;;;15.68;100.00;99215.97;4991971;28;20254;-81
2022/08/22 03:52:15;;;;;;;4.35;3.42;;;;;;;15.66;100.00;99204.50;5007054;28;20046;-81
2022/08/22 03:55:02;;;;;;;3.70;3.40;;;;;;;15.69;100.00;99206.31;5006453;28;20042;-81
2022/08/22 03:57:46;;;;;;;3.97;3.28;;;;;;;15.68;100.00;99212.41;4994136;28;20053;-81
2022/08/22 04:00:35;;;;;;;3.47;3.08;;;;;;;15.66;100.00;99206.53;4989144;28;20089;-81
2022/08/22 04:03:22;;;;;;;4.85;3.50;;;;;;;15.65;100.00;99213.41;4987300;28;20054;-81
2022/08/22 04:05:53;;;;;;;4.22;3.35;;;;;;;15.66;100.00;99201.69;5016393;23;20585;-80
2022/08/22 04:08:40;;;;;;;4.00;3.40;;;;;;;15.66;100.00;99203.72;4973555;28;20035;-80
2022/08/22 04:11:12;;;;;;;3.90;3.50;;;;;;;15.68;100.00;99210.38;4972001;28;20047;-82
2022/08/22 04:14:09;;;;;;;4.10;3.38;;;;;;;15.68;100.00;99209.59;4972155;28;20117;-80
2022/08/22 04:17:07;;;;;;;3.78;3.22;;;;;;;15.63;100.00;99208.28;4967491;28;20035;-79
2022/08/22 04:19:51;;;;;;;4.15;3.65;;;;;;;15.62;100.00;99217.16;4967746;28;20046;-82
2022/08/22 04:22:35;;;;;;;;;;;;;;;15.60;100.00;99209.28;4970847;28;20042;-79
2022/08/22 04:25:17;;;;;;;4.10;3.70;;;;;;;15.64;100.00;99211.84;4969276;28;20068;-79
2022/08/22 04:27:48;;;;;;;5.53;3.45;;;;;;;15.59;100.00;99202.13;4969229;28;20085;-80
2022/08/22 04:30:25;;;;;;;5.05;3.70;;;;;;;15.60;100.00;99202.91;4969875;28;20622;-81
2022/08/22 04:33:06;;;;;;;4.82;3.75;;;;;;;15.58;100.00;99200.59;5004825;23;20268;-79
2022/08/22 04:35:55;;;;;;;4.07;3.65;;;;;;;15.58;100.00;99211.00;4935976;28;20130;-80
2022/08/22 04:38:39;;;;;;;4.97;3.72;;;;;;;15.56;100.00;99217.09;4941193;28;20051;-81
2022/08/22 04:41:13;;;;;;;5.45;3.90;;;;;;;15.56;100.00;99208.72;4945494;28;20051;-81
2022/08/22 04:43:52;;;;;;;4.43;3.90;;;;;;;15.53;100.00;99215.25;4933448;28;20046;-82
2022/08/22 04:46:38;;;;;;;4.32;3.75;;;;;;;15.54;100.00;99222.41;4963950;28;20058;-81
2022/08/22 04:49:14;;;;;;;4.47;4.07;;;;;;;15.55;100.00;99223.94;4918908;28;20079;-81
2022/08/22 04:51:48;;;;;;;4.55;4.00;;;;;;;15.57;100.00;99227.00;4962145;28;20672;-80
2022/08/22 04:54:17;;;;;;;;;;;;;;;15.56;100.00;99228.28;4950415;28;20133;-81
2022/08/22 04:57:07;;;;;;;4.20;3.80;;;;;;;15.56;100.00;99225.50;5004018;23;19922;-81
2022/08/22 04:59:33;;;;;;;4.82;4.00;;;;;;;15.55;100.00;99220.38;4981996;28;20053;-82
2022/08/22 05:02:05;;;;;;;5.43;4.03;;;;;;;15.51;100.00;99226.19;4983634;28;20042;-81
2022/08/22 05:04:50;;;;;;;5.20;3.85;;;;;;;15.50;100.00;99216.25;4987939;28;20515;-82
2022/08/22 05:07:21;;;;;;;5.65;4.22;;;;;;;15.50;100.00;99227.44;4960835;28;20150;-82
2022/08/22 05:09:55;;;;;;;4.80;3.75;;;;;;;15.48;100.00;99229.94;4983358;28;20472;-82
2022/08/22 05:12:30;;;;;;;;;;;;;;;15.51;100.00;99228.22;4982904;28;20104;-81
2022/08/22 05:15:20;;;;;;;4.97;4.22;;;;;;;15.49;100.00;99241.88;4942093;28;20293;-94
2022/08/22 05:17:47;;;;;;;4.18;3.78;;;;;;;15.43;100.00;99233.44;4950136;28;20306;-94
2022/08/22 05:20:17;;;;;;;5.45;4.25;;;;;;;15.41;100.00;99233.91;4942790;28;20046;-94
2022/08/22 05:22:48;;;;;;;4.50;3.90;;;;;;;15.42;100.00;99243.06;4966174;28;20031;-95
2022/08/22 05:25:19;;;;;;;4.53;3.80;;;;;;;15.41;100.00;99231.09;4979461;28;20057;-94
2022/08/22 05:27:50;;;;;;;4.57;3.88;;;;;;;15.44;100.00;99246.16;4962377;28;20093;-94
2022/08/22 05:30:24;;;;;;;4.38;3.80;;;;;;;15.43;100.00;99252.22;4942242;28;20116;-92
2022/08/22 05:32:57;;;;;;;5.60;4.15;;;;;;;15.41;100.00;99241.50;4954651;28;20050;-82
2022/08/22 05:35:36;;;;;;;4.22;3.83;;;;;;;15.39;100.00;99232.88;4981813;28;20053;-82
2022/08/22 05:38:02;;;;;;;5.07;4.15;;;;;;;15.40;100.00;99251.19;4969589;28;20049;-82
2022/08/22 05:40:29;;;;;;;5.10;4.00;;;;;;;15.39;100.00;99253.19;4966130;28;20034;-83
2022/08/22 05:42:56;;;;;;;4.50;4.10;;;;;;;15.41;100.00;99258.28;4981003;28;20046;-81
2022/08/22 05:45:24;;;;;;;5.00;4.20;;;;;;;15.38;100.00;99259.25;4964103;28;20397;-82
2022/08/22 05:47:53;;;;;;;4.25;3.85;;;;;;;15.43;100.00;99255.00;4961945;28;20294;-82
2022/08/22 05:50:25;;;;;;;4.45;4.05;;;;;;;15.46;100.00;99265.19;4950073;28;20039;-82
2022/08/22 05:53:05;;;;;;;4.45;3.97;;;;;;;15.43;100.00;99261.38;4955025;28;20043;-92
2022/08/22 05:55:58;;;;;;;4.45;4.05;;;;;;;15.46;100.00;99265.19;4964462;28;20050;-94
2022/08/22 05:58:26;;;;;;;5.00;4.35;;;;;;;15.46;100.00;99268.00;5006354;28;20081;-91
2022/08/22 06:00:58;;;;;;;5.03;4.15;;;;;;;15.43;100.00;99266.97;4998452;28;20047;-93
2022/08/22 06:03:29;;;;;;;5.13;4.13;;;;;;;15.45;100.00;99270.03;4999369;28;20104;-92
2022/08/22 06:05:58;;;;;;;4.75;4.22;;;;;;;15.41;100.00;99263.88;4989459;28;20042;-93
2022/08/22 06:08:34;;;;;;;5.20;4.70;;;;;;;15.38;100.00;99271.22;4991064;28;20070;-93
2022/08/22 06:11:11;;;;;;;5.15;4.43;;;;;;;15.36;100.00;99267.38;5005307;28;20088;-83
2022/08/22 06:13:44;;;;;;;4.78;3.90;;;;;;;15.42;100.00;99271.00;5008981;28;20052;-82
2022/08/22 06:16:19;;;;;;;;;;;;;;;15.42;100.00;99279.38;4992038;28;20499;-83
2022/08/22 06:18:46;;;;;;;5.53;4.35;;;;;;;15.38;100.00;99270.44;4997416;28;20389;-83
2022/08/22 06:21:22;;;;;;;4.95;4.35;;;;;;;15.40;100.00;99268.72;4982077;28;20049;-82
2022/08/22 06:23:55;;;;;;;5.05;4.55;;;;;;;15.38;100.00;99259.25;4997956;28;20041;-83
2022/08/22 06:26:23;;;;;;;5.20;4.63;;;;;;;15.44;100.00;99265.72;5016377;28;20066;-92
2022/08/22 06:28:52;;;;;;;4.85;4.35;;;;;;;15.47;100.00;99280.72;5016434;28;20555;-92
2022/08/22 06:31:21;;;;;;;4.80;4.20;;;;;;;15.46;100.00;99263.19;5006356;28;20383;-82
2022/08/22 06:33:55;;;;;;;4.82;4.30;;;;;;;15.49;100.00;99275.44;5007355;28;20544;-82
2022/08/22 06:36:29;;;;;;;;;;;;;;;15.48;100.00;99269.06;4990727;28;20088;-83
2022/08/22 06:39:17;;;;;;;5.15;4.43;;;;;;;15.51;100.00;99268.09;5019510;28;19917;-82
2022/08/22 06:42:01;;;;;;;7.18;4.05;;;;;;;15.50;100.00;99277.75;5016514;28;20073;-84
2022/08/22 06:44:40;;;;;;;5.45;3.83;;;;;;;15.44;100.00;99267.72;5004477;28;20500;-83
2022/08/22 06:47:12;;;;;;;5.15;3.95;;;;;;;15.47;100.00;99272.34;4998813;28;20049;-83
2022/08/22 06:49:39;;;;;;;5.45;3.63;;;;;;;15.51;100.00;99284.88;4972416;28;20515;-92
2022/08/22 06:52:08;;;;;;;5.35;3.90;;;;;;;15.52;100.00;99277.25;4996330;28;20510;-92
2022/08/22 06:54:36;;;;;;;3.80;3.40;;;;;;;15.54;100.00;99278.31;5001684;28;20054;-93
2022/08/22 06:57:03;;;;;;;4.20;3.42;;;;;;;15.53;100.00;99282.34;4969127;28;20050;-93
2022/08/22 06:59:30;;;;;;;4.30;3.55;;;;;;;15.51;100.00;99282.09;5006907;28;20073;-94
2022/08/22 07:02:16;;;;;;;4.43;3.40;;;;;;;15.57;100.00;99287.75;5006630;28;20058;-93
2022/08/22 07:04:42;;;;;;;4.85;3.70;;;;;;;15.55;100.00;99291.03;5038880;28;20056;-95
2022/08/22 07:07:07;;;;;;;3.85;3.45;;;;;;;15.56;100.00;99286.97;5027218;28;20610;-92
2022/08/22 07:09:35;;;;;;;7.22;3.65;;;;;;;15.56;100.00;99295.38;5009380;28;20399;-95
2022/08/22 07:12:12;;;;;;;5.00;3.60;;;;;;;15.56;100.00;99298.16;5004235;28;20104;-94
2022/08/22 07:14:40;;;;;;;4.85;3.88;;;;;;;15.57;100.00;99290.56;5026119;28;20054;-93
2022/08/22 07:17:08;;;;;;;4.35;3.72;;;;;;;15.59;100.00;99291.59;5007923;28;20038;-94
2022/08/22 07:19:36;;;;;;;4.40;3.60;;;;;;;15.60;100.00;99298.72;5005735;28;20101;-92
2022/08/22 07:22:20;;;;;;;4.78;3.67;;;;;;;15.61;100.00;99293.91;5002510;28;20040;-93
2022/08/22 07:24:50;;;;;;;5.97;3.90;;;;;;;15.61;100.00;99296.69;5004103;28;20564;-81
2022/08/22 07:27:51;;;;;;;4.28;3.88;;;;;;;15.62;100.00;99284.25;5005607;28;20143;-91
2022/08/22 07:30:18;;;;;;;4.40;3.45;;;;;;;15.63;100.00;99296.97;4989812;28;20492;-93
2022/08/22 07:32:53;;;;;;;3.90;3.50;;;;;;;15.59;100.00;99291.59;5004704;28;20622;-92
2022/08/22 07:35:20;;;;;;;4.07;3.65;;;;;;;15.63;100.00;99294.16;4992446;28;20034;-92
2022/08/22 07:38:17;;;;;;;4.95;3.85;;;;;;;15.66;100.00;99298.78;4970357;28;20030;-92
2022/08/22 07:41:23;;;;;;;4.38;3.33;;;;;;;15.70;100.00;99297.31;4989210;28;20034;-93
2022/08/22 07:44:11;;;;;;;3.28;2.97;;;;;;;15.62;100.00;99290.59;4990563;28;20412;-93
2022/08/22 07:46:49;;;;;;;4.07;3.10;;;;;;;15.63;100.00;99297.75;4980294;28;20112;-82
2022/08/22 07:49:20;;;;;;;3.15;2.60;;;;;;;15.59;100.00;99290.81;4990545;28;20188;-81
2022/08/22 07:51:50;;;;;;;4.30;2.53;;;;;;;15.64;100.00;99304.88;4989839;28;20088;-81
2022/08/22 07:54:26;;;;;;;5.60;2.80;;;;;;;15.66;100.00;99310.72;4989605;28;20385;-81
2022/08/22 07:56:56;;;;;;;3.75;2.58;;;;;;;15.69;100.00;99309.75;5005213;28;20053;-81
2022/08/22 07:59:23;;;;;;;3.03;2.45;;;;;;;15.72;100.00;99308.78;4989547;28;20039;-82
2022/08/22 08:01:55;;;;;;;2.53;2.15;;;;;;;15.65;100.00;99300.78;4989559;28;20577;-82
2022/08/22 08:04:25;;;;;;;2.63;2.20;;;;;;;15.66;100.00;99307.16;4988863;28;20073;-82
2022/08/22 08:06:52;;;;;;;2.65;2.30;;;;;;;15.71;100.00;99312.06;4992956;28;20061;-95
2022/08/22 08:09:18;;;;;;;3.25;2.17;;;;;;;15.68;100.00;99316.63;4994706;28;20046;-94
2022/08/22 08:11:46;;;;;;;2.95;2.20;;;;;;;15.67;100.00;99314.31;4989143;28;20118;-93
2022/08/22 08:14:13;;;;;;;3.30;2.50;;;;;;;15.71;100.00;99315.63;4991080;28;20085;-93
2022/08/22 08:16:42;;;;;;;3.83;2.13;;;;;;;15.70;100.00;99311.28;5007290;28;20080;-96
2022/08/22 08:19:09;;;;;;;3.08;2.35;;;;;;;15.70;100.00;99308.50;4986300;28;20046;-94
2022/08/22 08:21:35;;;;;;;4.72;2.47;;;;;;;15.72;100.00;99311.59;5006903;28;20137;-95
2022/08/22 08:24:01;;;;;;;2.92;2.40;;;;;;;15.74;100.00;99306.25;4990698;28;20050;-82
2022/08/22 08:26:32;;;;;;;3.83;2.63;;;;;;;15.72;100.00;99306.00;4988693;28;20072;-83
2022/08/22 08:28:58;;;;;;;3.35;2.47;;;;;;;15.72;100.00;99311.59;4989385;28;20042;-83
2022/08/22 08:31:36;;;;;;;3.22;2.17;;;;;;;15.67;100.00;99319.88;4989048;28;20141;-81
2022/08/22 08:34:10;;;;;;;2.35;1.65;;;;;;;15.63;100.00;99314.50;4990049;28;20046;-81
2022/08/22 08:36:53;;;;;;;1.63;1.52;;;;;;;15.63;100.00;99325.69;4983448;28;20137;-82
2022/08/22 08:39:28;;;;;;;2.03;1.80;;;;;;;15.61;100.00;99322.59;4984653;28;20100;-82
2022/08/22 08:42:06;;;;;;;2.20;1.70;;;;;;;15.58;100.00;99323.59;4990629;28;20042;-83
2022/08/22 08:45:39;;;;;;;2.50;1.83;;;;;;;15.56;100.00;99326.13;4994463;28;20097;-94
2022/08/22 08:48:18;;;;;;;2.10;1.90;;;;;;;15.54;100.00;99331.41;4914348;29;20622;-95
2022/08/22 08:50:50;;;;;;;2.30;1.70;;;;;;;15.51;100.00;99329.59;4992093;28;20050;-96
2022/08/22 08:53:34;;;;;;;2.55;2.10;;;;;;;15.51;100.00;99340.78;4990926;28;20066;-94
2022/08/22 08:56:32;;;;;;;2.47;1.90;;;;;;;15.53;100.00;99327.06;4993815;28;20050;-96
2022/08/22 08:59:10;;;;;;;3.05;2.20;;;;;;;15.56;100.00;99347.69;4976104;28;20571;-94
2022/08/22 09:01:36;;;;;;;2.28;1.80;;;;;;;15.59;100.00;99346.72;4983406;28;20046;-94
2022/08/22 09:04:40;;;;;;;1.73;1.60;;;;;;;15.53;100.00;99341.03;4990035;28;20245;-83
2022/08/22 09:07:33;;;;;;;1.85;1.65;;;;;;;15.59;100.00;99341.13;4953257;28;20423;-83
2022/08/22 09:10:23;;;;;;;1.92;1.73;;;;;;;15.57;100.00;99341.59;5004906;28;20133;-82
2022/08/22 09:13:11;;;;;;;3.33;1.90;;;;;;;15.58;100.00;99350.78;4980576;28;20038;-83
2022/08/22 09:15:53;;;;;;;1.60;1.50;;;;;;;15.57;100.00;99341.59;4985110;28;20039;-83
2022/08/22 09:18:28;;;;;;;1.85;1.60;;;;;;;15.58;100.00;99337.56;4988169;28;20313;-83
2022/08/22 09:21:05;;;;;;;1.63;1.50;;;;;;;15.59;100.00;99353.09;4986429;28;20056;-83
2022/08/22 09:23:47;;;;;;;2.05;1.63;;;;;;;15.55;100.00;99338.53;4990250;28;20492;-94
2022/08/22 09:26:13;;;;;;;2.20;1.73;;;;;;;15.57;100.00;99338.06;4988555;28;20042;-95
2022/08/22 09:28:52;;;;;;;1.85;1.52;;;;;;;15.58;100.00;99347.97;4990650;28;20050;-95
2022/08/22 09:31:40;;;;;;;2.40;1.90;;;;;;;15.57;100.00;99341.59;4983798;28;20082;-93
2022/08/22 09:34:32;;;;;;;1.95;1.70;;;;;;;15.53;100.00;99329.88;4991957;28;20050;-95
2022/08/22 09:37:06;;;;;;;2.47;1.83;;;;;;;15.56;100.00;99340.09;4974154;28;20118;-93
2022/08/22 09:39:40;;;;;;;2.05;1.85;;;;;;;15.58;100.00;99340.34;4994548;28;20050;-93
2022/08/22 09:42:40;;;;;;;2.78;2.28;;;;;;;15.63;100.00;99339.66;4989713;28;20526;-81
2022/08/22 09:45:05;;;;;;;3.60;2.03;;;;;;;15.66;100.00;99335.88;4988731;28;20073;-83
2022/08/22 09:47:54;;;;;;;2.95;2.15;;;;;;;15.68;100.00;99338.97;4982178;28;20461;-82
2022/08/22 09:50:23;;;;;;;2.92;2.17;;;;;;;15.62;100.00;99332.53;4988714;28;20054;-82
2022/08/22 09:52:52;;;;;;;2.33;2.13;;;;;;;15.74;100.00;99331.41;4988859;28;20121;-82
2022/08/22 09:55:39;;;;;;;2.38;2.05;;;;;;;15.76;100.00;99340.09;4987436;28;20073;-82
2022/08/22 09:58:24;;;;;;;2.60;1.92;;;;;;;15.84;100.00;99338.44;4979276;28;20038;-82
2022/08/22 10:00:54;;;;;;;2.35;2.10;;;;;;;15.97;100.00;99331.72;4986461;28;20147;-96
2022/08/22 10:04:01;;;;;;;2.45;2.17;;;;;;;16.12;100.00;99337.97;4984008;28;20039;-96
2022/08/22 10:06:32;;;;;;;2.97;2.10;;;;;;;16.23;100.00;99344.47;4992237;28;20172;-96
2022/08/22 10:09:05;;;;;;;2.40;2.00;;;;;;;16.29;100.00;99336.13;5005992;28;20070;-96
2022/08/22 10:11:52;;;;;;;2.97;2.10;;;;;;;16.19;100.00;99343.13;4988240;28;20061;-96
2022/08/22 10:14:29;;;;;;;2.92;2.10;;;;;;;16.13;100.00;99342.31;5006189;28;20034;-96
2022/08/22 10:17:07;;;;;;;4.18;2.15;;;;;;;16.13;100.00;99345.13;5015814;28;20043;-95
2022/08/22 10:19:41;;;;;;;2.33;2.13;;;;;;;16.11;100.00;99351.19;5001523;28;20184;-83
2022/08/22 10:22:35;;;;;;;2.70;2.05;;;;;;;16.08;100.00;99343.03;4975069;28;20408;-82
2022/08/22 10:25:01;;;;;;;4.00;2.50;;;;;;;16.09;100.00;99344.56;4983757;28;20050;-81
2022/08/22 10:27:39;;;;;;;2.72;2.40;;;;;;;16.06;100.00;99346.28;4988070;28;20128;-82
2022/08/22 10:30:18;;;;;;;3.38;2.40;;;;;;;16.14;100.00;99343.84;4983906;28;20142;-83
2022/08/22 10:32:47;;;;;;;3.15;2.38;;;;;;;16.14;100.00;99347.41;4986338;28;20428;-83
2022/08/22 10:35:31;;;;;;;2.67;2.33;;;;;;;16.16;100.00;99341.34;4985191;28;20468;-83
2022/08/22 10:38:03;;;;;;;3.45;2.60;;;;;;;16.20;100.00;99336.28;4990523;28;20402;-94
2022/08/22 10:40:36;;;;;;;2.70;2.40;;;;;;;16.15;100.00;99343.34;4998233;28;20483;-93
2022/08/22 10:43:28;;;;;;;3.47;2.55;;;;;;;16.23;100.00;99349.28;4991063;28;20050;-94
2022/08/22 10:46:01;;;;;;;3.30;2.67;;;;;;;16.19;100.00;99332.72;4988940;28;20435;-94
2022/08/22 10:48:38;;;;;;;3.22;2.53;;;;;;;16.24;100.00;99356.44;4996689;28;20114;-94
2022/08/22 10:51:15;;;;;;;3.63;2.97;;;;;;;16.25;100.00;99358.75;4988251;28;20433;-95
2022/08/22 10:54:08;;;;;;;4.25;3.40;;;;;;;16.25;100.00;99357.97;4981929;28;20055;-95
2022/08/22 10:56:54;;;;;;;4.50;3.20;;;;;;;16.27;100.00;99344.25;5008421;28;20056;-96
2022/08/22 10:59:31;;;;;;;3.88;3.10;;;;;;;16.32;100.00;99349.13;4990500;28;20043;-95
2022/08/22 11:01:57;;;;;;;5.30;3.40;;;;;;;16.35;100.00;99345.34;5005098;28;20061;-95
2022/08/22 11:04:48;;;;;;;3.97;3.58;;;;;;;16.38;100.00;99347.16;4991615;28;20125;-96
2022/08/22 11:07:52;;;;;;;3.90;3.35;;;;;;;16.38;100.00;99352.75;4983740;28;20046;-94
2022/08/22 11:10:23;;;;;;;;;;;;;;;16.47;100.00;99352.59;4996385;28;20042;-95
2022/08/22 11:13:24;;;;;;;3.42;3.05;;;;;;;16.38;100.00;99361.16;4998708;28;19988;-95
2022/08/22 11:15:58;;;;;;;3.83;3.20;;;;;;;16.39;100.00;99362.69;4991619;28;20050;-84
2022/08/22 11:18:43;;;;;;;3.83;3.42;;;;;;;16.38;100.00;99366.75;4989451;28;20077;-83
2022/08/22 11:21:27;;;;;;;4.07;3.58;;;;;;;16.32;100.00;99363.13;4985036;28;20069;-82
2022/08/22 11:24:17;;;;;;;5.30;3.55;;;;;;;16.36;100.00;99360.88;4990021;28;20061;-81
2022/08/22 11:26:47;;;;;;;5.03;3.83;;;;;;;16.30;100.00;99365.63;4985423;28;20150;-82
2022/08/22 11:29:50;;;;;;;4.03;3.28;;;;;;;16.34;100.00;99366.19;4992085;28;20046;-82
2022/08/22 11:32:31;;;;;;;3.95;3.22;;;;;;;16.38;100.00;99366.75;4988671;28;20470;-81
2022/08/22 11:34:57;;;;;;;4.80;3.17;;;;;;;16.42;100.00;99377.75;4988698;28;20077;-95
2022/08/22 11:37:51;;;;;;;5.55;3.10;;;;;;;16.49;100.00;99366.88;4993091;28;20042;-95
2022/08/22 11:40:36;;;;;;;3.65;2.88;;;;;;;16.57;100.00;99373.59;5009568;28;20066;-95
2022/08/22 11:43:36;;;;;;;3.10;2.80;;;;;;;16.68;100.00;99367.34;4994739;28;20042;-94
2022/08/22 11:46:19;;;;;;;5.28;3.22;;;;;;;16.71;100.00;99367.13;4988058;28;20085;-95
2022/08/22 11:48:58;;;;;;;3.88;2.65;;;;;;;16.79;100.00;99368.22;4989028;28;20047;-94
2022/08/22 11:51:59;;;;;;;6.18;2.70;;;;;;;16.87;100.00;99356.53;5008114;28;20035;-94
2022/08/22 11:54:56;;;;;;;3.25;2.50;;;;;;;16.95;100.00;99369.63;4949333;28;20533;-82
2022/08/22 11:57:46;;;;;;;3.88;2.50;;;;;;;17.06;100.00;99366.16;4982782;28;20090;-81
2022/08/22 12:00:36;;;;;;;2.78;2.33;;;;;;;17.00;100.00;99365.31;4973878;28;20050;-82
2022/08/22 12:03:24;;;;;;;4.13;2.47;;;;;;;16.99;100.00;99366.59;4989372;28;20042;-82
2022/08/22 12:05:54;;;;;;;3.55;2.42;;;;;;;16.87;100.00;99374.13;5003521;28;20050;-82
2022/08/22 12:08:32;;;;;;;3.25;2.30;;;;;;;16.85;100.00;99364.69;4997654;28;20432;-82
2022/08/22 12:11:08;;;;;;;5.18;2.80;;;;;;;16.81;100.00;99370.53;4988975;28;20042;-81
2022/08/22 12:14:01;;;;;;;5.18;2.55;;;;;;;16.89;100.00;99370.84;5005154;28;20042;-94
2022/08/22 12:16:41;;;;;;;4.25;2.60;;;;;;;16.86;100.00;99367.00;5000327;28;20466;-95
2022/08/22 12:19:30;;;;;;;3.90;2.60;;;;;;;16.72;100.00;99368.66;4980823;28;20492;-94
2022/08/22 12:22:21;;;;;;;3.40;2.45;;;;;;;16.76;100.00;99366.41;4976359;28;20184;-96
2022/08/22 12:25:07;;;;;;;4.43;2.55;;;;;;;16.74;100.00;99365.38;4980571;28;20126;-95